Terminal Aerodrome Forecast
Issued by NWS

Home | Current Version | Previous Version | Text Only | Print | Product List | Glossary On
Versions: 1 2 3 4 5 6 7 8 9 10 11 12 13
000
FTUS44 KOUN 261134
TAFWWR
TAF
KWWR 261134Z 2612/2712 36016G24KT P6SM OVC008
     FM261400 36016G24KT P6SM OVC020
     FM261700 34016G24KT P6SM BKN050
     FM270000 32010KT P6SM SKC
     FM270300 18006KT P6SM SKC=

USA.gov is the U.S. government's official web portal to all federal, state and local government web resources and services.